sensor_id;sensor_type;location;lat;lon;timestamp;P1;durP1;ratioP1;P2;durP2;ratioP2
62687;SDS011;48752;51.056;17.056;2023-08-24T00:02:19;8.90;;;4.78;;
62687;SDS011;48752;51.056;17.056;2023-08-24T00:04:48;11.77;;;5.53;;
62687;SDS011;48752;51.056;17.056;2023-08-24T00:07:15;8.15;;;4.97;;
62687;SDS011;48752;51.056;17.056;2023-08-24T00:09:41;10.32;;;5.03;;
62687;SDS011;48752;51.056;17.056;2023-08-24T00:12:07;8.07;;;5.03;;
62687;SDS011;48752;51.056;17.056;2023-08-24T00:14:34;8.68;;;4.72;;
62687;SDS011;48752;51.056;17.056;2023-08-24T00:17:08;9.13;;;5.40;;
62687;SDS011;48752;51.056;17.056;2023-08-24T00:19:34;9.27;;;5.85;;
62687;SDS011;48752;51.056;17.056;2023-08-24T00:22:00;7.47;;;4.88;;
62687;SDS011;48752;51.056;17.056;2023-08-24T00:24:28;8.35;;;5.20;;
62687;SDS011;48752;51.056;17.056;2023-08-24T00:26:55;7.88;;;4.40;;
62687;SDS011;48752;51.056;17.056;2023-08-24T00:29:22;7.60;;;4.85;;
62687;SDS011;48752;51.056;17.056;2023-08-24T00:31:49;8.45;;;5.07;;
62687;SDS011;48752;51.056;17.056;2023-08-24T00:34:15;7.80;;;4.97;;
62687;SDS011;48752;51.056;17.056;2023-08-24T00:36:42;6.93;;;4.75;;
62687;SDS011;48752;51.056;17.056;2023-08-24T00:39:07;9.40;;;5.30;;
62687;SDS011;48752;51.056;17.056;2023-08-24T00:41:34;7.13;;;4.65;;
62687;SDS011;48752;51.056;17.056;2023-08-24T00:44:01;8.23;;;5.35;;
62687;SDS011;48752;51.056;17.056;2023-08-24T00:46:28;8.00;;;5.68;;
62687;SDS011;48752;51.056;17.056;2023-08-24T00:48:55;7.65;;;5.15;;
62687;SDS011;48752;51.056;17.056;2023-08-24T00:51:25;8.43;;;5.65;;
62687;SDS011;48752;51.056;17.056;2023-08-24T00:53:51;8.38;;;5.00;;
62687;SDS011;48752;51.056;17.056;2023-08-24T00:56:24;6.78;;;4.75;;
62687;SDS011;48752;51.056;17.056;2023-08-24T00:59:04;8.10;;;5.70;;
62687;SDS011;48752;51.056;17.056;2023-08-24T01:01:30;6.82;;;4.95;;
62687;SDS011;48752;51.056;17.056;2023-08-24T01:03:55;7.78;;;5.45;;
62687;SDS011;48752;51.056;17.056;2023-08-24T01:06:23;9.38;;;5.45;;
62687;SDS011;48752;51.056;17.056;2023-08-24T01:08:51;7.93;;;4.68;;
62687;SDS011;48752;51.056;17.056;2023-08-24T01:11:54;8.60;;;5.23;;
62687;SDS011;48752;51.056;17.056;2023-08-24T01:17:18;9.43;;;5.38;;
62687;SDS011;48752;51.056;17.056;2023-08-24T01:19:49;12.48;;;5.45;;
62687;SDS011;48752;51.056;17.056;2023-08-24T01:24:58;7.15;;;5.43;;
62687;SDS011;48752;51.056;17.056;2023-08-24T01:27:32;8.60;;;5.30;;
62687;SDS011;48752;51.056;17.056;2023-08-24T01:30:00;7.78;;;5.00;;
62687;SDS011;48752;51.056;17.056;2023-08-24T01:32:37;7.75;;;5.65;;
62687;SDS011;48752;51.056;17.056;2023-08-24T01:35:04;9.50;;;5.88;;
62687;SDS011;48752;51.056;17.056;2023-08-24T01:37:35;9.65;;;6.57;;
62687;SDS011;48752;51.056;17.056;2023-08-24T01:43:04;8.60;;;6.30;;
62687;SDS011;48752;51.056;17.056;2023-08-24T01:45:37;11.32;;;6.28;;
62687;SDS011;48752;51.056;17.056;2023-08-24T01:48:04;11.40;;;6.72;;
62687;SDS011;48752;51.056;17.056;2023-08-24T01:50:33;12.98;;;6.82;;
62687;SDS011;48752;51.056;17.056;2023-08-24T01:52:59;9.60;;;6.43;;
62687;SDS011;48752;51.056;17.056;2023-08-24T01:55:25;8.23;;;5.45;;
62687;SDS011;48752;51.056;17.056;2023-08-24T01:57:54;11.38;;;5.70;;
62687;SDS011;48752;51.056;17.056;2023-08-24T02:00:35;10.73;;;6.07;;
62687;SDS011;48752;51.056;17.056;2023-08-24T02:03:01;10.82;;;6.00;;
62687;SDS011;48752;51.056;17.056;2023-08-24T02:05:28;11.50;;;6.57;;
62687;SDS011;48752;51.056;17.056;2023-08-24T02:07:54;11.40;;;5.65;;
62687;SDS011;48752;51.056;17.056;2023-08-24T02:10:24;9.30;;;6.20;;
62687;SDS011;48752;51.056;17.056;2023-08-24T02:12:50;11.05;;;5.97;;
62687;SDS011;48752;51.056;17.056;2023-08-24T02:15:17;14.43;;;6.85;;
62687;SDS011;48752;51.056;17.056;2023-08-24T02:17:53;13.70;;;5.82;;
62687;SDS011;48752;51.056;17.056;2023-08-24T02:20:18;9.65;;;5.47;;
62687;SDS011;48752;51.056;17.056;2023-08-24T02:22:47;9.43;;;6.28;;
62687;SDS011;48752;51.056;17.056;2023-08-24T02:25:14;6.95;;;5.60;;
62687;SDS011;48752;51.056;17.056;2023-08-24T02:27:40;10.07;;;6.45;;
62687;SDS011;48752;51.056;17.056;2023-08-24T02:30:07;9.32;;;5.60;;
62687;SDS011;48752;51.056;17.056;2023-08-24T02:32:34;8.88;;;5.28;;
62687;SDS011;48752;51.056;17.056;2023-08-24T02:35:03;12.23;;;5.75;;
62687;SDS011;48752;51.056;17.056;2023-08-24T02:37:30;17.40;;;5.82;;
62687;SDS011;48752;51.056;17.056;2023-08-24T02:39:55;9.52;;;5.90;;
62687;SDS011;48752;51.056;17.056;2023-08-24T02:42:21;9.73;;;5.82;;
62687;SDS011;48752;51.056;17.056;2023-08-24T02:44:48;8.98;;;6.03;;
62687;SDS011;48752;51.056;17.056;2023-08-24T02:47:14;11.15;;;6.18;;
62687;SDS011;48752;51.056;17.056;2023-08-24T02:49:41;6.57;;;5.70;;
62687;SDS011;48752;51.056;17.056;2023-08-24T02:52:09;9.02;;;5.20;;
62687;SDS011;48752;51.056;17.056;2023-08-24T02:54:37;9.60;;;5.57;;
62687;SDS011;48752;51.056;17.056;2023-08-24T02:57:02;9.65;;;6.13;;
62687;SDS011;48752;51.056;17.056;2023-08-24T02:59:28;9.15;;;5.32;;
62687;SDS011;48752;51.056;17.056;2023-08-24T03:01:55;10.95;;;5.53;;
62687;SDS011;48752;51.056;17.056;2023-08-24T03:04:24;8.90;;;5.50;;
62687;SDS011;48752;51.056;17.056;2023-08-24T03:06:50;9.05;;;6.50;;
62687;SDS011;48752;51.056;17.056;2023-08-24T03:09:17;10.52;;;4.93;;
62687;SDS011;48752;51.056;17.056;2023-08-24T03:11:44;11.00;;;6.03;;
62687;SDS011;48752;51.056;17.056;2023-08-24T03:14:10;11.77;;;6.15;;
62687;SDS011;48752;51.056;17.056;2023-08-24T03:16:39;10.02;;;5.75;;
62687;SDS011;48752;51.056;17.056;2023-08-24T03:19:05;6.38;;;5.30;;
62687;SDS011;48752;51.056;17.056;2023-08-24T03:21:31;10.75;;;6.05;;
62687;SDS011;48752;51.056;17.056;2023-08-24T03:23:58;9.48;;;5.93;;
62687;SDS011;48752;51.056;17.056;2023-08-24T03:26:23;9.40;;;6.68;;
62687;SDS011;48752;51.056;17.056;2023-08-24T03:28:49;9.65;;;6.07;;
62687;SDS011;48752;51.056;17.056;2023-08-24T03:31:15;12.00;;;6.20;;
62687;SDS011;48752;51.056;17.056;2023-08-24T03:33:41;12.57;;;6.25;;
62687;SDS011;48752;51.056;17.056;2023-08-24T03:36:07;11.32;;;6.78;;
62687;SDS011;48752;51.056;17.056;2023-08-24T03:38:33;9.73;;;6.28;;
62687;SDS011;48752;51.056;17.056;2023-08-24T03:41:01;8.85;;;6.47;;
62687;SDS011;48752;51.056;17.056;2023-08-24T03:43:32;11.68;;;6.00;;
62687;SDS011;48752;51.056;17.056;2023-08-24T03:45:59;15.32;;;6.60;;
62687;SDS011;48752;51.056;17.056;2023-08-24T03:48:27;7.97;;;6.05;;
62687;SDS011;48752;51.056;17.056;2023-08-24T03:50:57;9.60;;;6.93;;
62687;SDS011;48752;51.056;17.056;2023-08-24T03:53:24;11.88;;;6.65;;
62687;SDS011;48752;51.056;17.056;2023-08-24T03:55:51;9.40;;;6.07;;
62687;SDS011;48752;51.056;17.056;2023-08-24T03:58:18;9.48;;;6.30;;
62687;SDS011;48752;51.056;17.056;2023-08-24T04:00:45;10.65;;;6.07;;
62687;SDS011;48752;51.056;17.056;2023-08-24T04:03:11;10.27;;;6.72;;
62687;SDS011;48752;51.056;17.056;2023-08-24T04:05:38;9.85;;;6.88;;
62687;SDS011;48752;51.056;17.056;2023-08-24T04:08:03;12.73;;;7.03;;
62687;SDS011;48752;51.056;17.056;2023-08-24T04:10:30;14.70;;;6.90;;
62687;SDS011;48752;51.056;17.056;2023-08-24T04:12:58;14.98;;;6.88;;
62687;SDS011;48752;51.056;17.056;2023-08-24T04:15:24;11.15;;;7.07;;
62687;SDS011;48752;51.056;17.056;2023-08-24T04:17:50;12.13;;;6.65;;
62687;SDS011;48752;51.056;17.056;2023-08-24T04:20:15;8.18;;;6.82;;
62687;SDS011;48752;51.056;17.056;2023-08-24T04:22:42;12.57;;;6.95;;
62687;SDS011;48752;51.056;17.056;2023-08-24T04:25:10;13.88;;;6.57;;
62687;SDS011;48752;51.056;17.056;2023-08-24T04:27:36;8.32;;;6.35;;
62687;SDS011;48752;51.056;17.056;2023-08-24T04:30:04;11.38;;;7.25;;
62687;SDS011;48752;51.056;17.056;2023-08-24T04:32:37;8.95;;;6.13;;
62687;SDS011;48752;51.056;17.056;2023-08-24T04:35:05;9.38;;;6.85;;
62687;SDS011;48752;51.056;17.056;2023-08-24T04:37:31;8.77;;;6.53;;
62687;SDS011;48752;51.056;17.056;2023-08-24T04:39:57;12.48;;;6.80;;
62687;SDS011;48752;51.056;17.056;2023-08-24T04:42:23;13.88;;;6.40;;
62687;SDS011;48752;51.056;17.056;2023-08-24T04:44:51;8.32;;;5.93;;
62687;SDS011;48752;51.056;17.056;2023-08-24T04:47:18;11.95;;;6.35;;
62687;SDS011;48752;51.056;17.056;2023-08-24T04:49:44;11.48;;;5.97;;
62687;SDS011;48752;51.056;17.056;2023-08-24T04:52:11;8.35;;;5.93;;
62687;SDS011;48752;51.056;17.056;2023-08-24T04:54:38;9.32;;;6.47;;
62687;SDS011;48752;51.056;17.056;2023-08-24T04:57:05;13.70;;;6.10;;
62687;SDS011;48752;51.056;17.056;2023-08-24T04:59:32;9.38;;;6.28;;
62687;SDS011;48752;51.056;17.056;2023-08-24T05:01:58;19.42;;;6.63;;
62687;SDS011;48752;51.056;17.056;2023-08-24T05:04:25;13.15;;;6.38;;
62687;SDS011;48752;51.056;17.056;2023-08-24T05:06:51;16.65;;;6.78;;
62687;SDS011;48752;51.056;17.056;2023-08-24T05:09:18;11.30;;;6.97;;
62687;SDS011;48752;51.056;17.056;2023-08-24T05:11:45;9.60;;;6.80;;
62687;SDS011;48752;51.056;17.056;2023-08-24T05:14:10;13.15;;;7.15;;
62687;SDS011;48752;51.056;17.056;2023-08-24T05:16:40;47.33;;;11.13;;
62687;SDS011;48752;51.056;17.056;2023-08-24T05:19:06;16.85;;;7.75;;
62687;SDS011;48752;51.056;17.056;2023-08-24T05:21:33;23.17;;;7.35;;
62687;SDS011;48752;51.056;17.056;2023-08-24T05:23:59;15.52;;;7.35;;
62687;SDS011;48752;51.056;17.056;2023-08-24T05:26:25;12.73;;;6.45;;
62687;SDS011;48752;51.056;17.056;2023-08-24T05:28:53;9.10;;;5.32;;
62687;SDS011;48752;51.056;17.056;2023-08-24T05:31:19;10.05;;;4.72;;
62687;SDS011;48752;51.056;17.056;2023-08-24T05:33:45;11.73;;;6.22;;
62687;SDS011;48752;51.056;17.056;2023-08-24T05:36:11;16.50;;;7.35;;
62687;SDS011;48752;51.056;17.056;2023-08-24T05:38:38;22.58;;;8.77;;
62687;SDS011;48752;51.056;17.056;2023-08-24T05:41:03;14.80;;;5.72;;
62687;SDS011;48752;51.056;17.056;2023-08-24T05:43:30;8.63;;;5.97;;
62687;SDS011;48752;51.056;17.056;2023-08-24T05:45:56;11.38;;;6.30;;
62687;SDS011;48752;51.056;17.056;2023-08-24T05:48:22;13.30;;;5.70;;
62687;SDS011;48752;51.056;17.056;2023-08-24T05:50:47;7.35;;;5.70;;
62687;SDS011;48752;51.056;17.056;2023-08-24T05:53:15;10.57;;;5.22;;
62687;SDS011;48752;51.056;17.056;2023-08-24T05:55:41;8.73;;;5.07;;
62687;SDS011;48752;51.056;17.056;2023-08-24T05:58:07;9.07;;;5.65;;
62687;SDS011;48752;51.056;17.056;2023-08-24T06:00:33;10.45;;;5.63;;
62687;SDS011;48752;51.056;17.056;2023-08-24T06:02:59;9.95;;;5.43;;
62687;SDS011;48752;51.056;17.056;2023-08-24T06:05:25;9.70;;;5.43;;
62687;SDS011;48752;51.056;17.056;2023-08-24T06:07:51;8.65;;;4.72;;
62687;SDS011;48752;51.056;17.056;2023-08-24T06:10:17;10.43;;;4.72;;
62687;SDS011;48752;51.056;17.056;2023-08-24T06:12:50;10.60;;;5.15;;
62687;SDS011;48752;51.056;17.056;2023-08-24T06:15:16;8.13;;;4.40;;
62687;SDS011;48752;51.056;17.056;2023-08-24T06:17:44;11.38;;;4.50;;
62687;SDS011;48752;51.056;17.056;2023-08-24T06:20:13;6.68;;;4.18;;
62687;SDS011;48752;51.056;17.056;2023-08-24T06:22:38;7.55;;;4.07;;
62687;SDS011;48752;51.056;17.056;2023-08-24T06:25:06;5.70;;;4.28;;
62687;SDS011;48752;51.056;17.056;2023-08-24T06:27:34;6.30;;;4.28;;
62687;SDS011;48752;51.056;17.056;2023-08-24T06:30:02;6.70;;;4.35;;
62687;SDS011;48752;51.056;17.056;2023-08-24T06:32:29;7.20;;;4.25;;
62687;SDS011;48752;51.056;17.056;2023-08-24T06:34:55;6.53;;;4.38;;
62687;SDS011;48752;51.056;17.056;2023-08-24T06:37:20;6.38;;;3.97;;
62687;SDS011;48752;51.056;17.056;2023-08-24T06:39:46;6.15;;;3.60;;
62687;SDS011;48752;51.056;17.056;2023-08-24T06:42:11;11.68;;;3.42;;
62687;SDS011;48752;51.056;17.056;2023-08-24T06:44:37;6.47;;;3.50;;
62687;SDS011;48752;51.056;17.056;2023-08-24T06:47:02;7.03;;;3.78;;
62687;SDS011;48752;51.056;17.056;2023-08-24T06:49:28;6.22;;;3.28;;
62687;SDS011;48752;51.056;17.056;2023-08-24T06:51:54;6.35;;;3.35;;
62687;SDS011;48752;51.056;17.056;2023-08-24T06:54:20;10.07;;;3.70;;
62687;SDS011;48752;51.056;17.056;2023-08-24T06:56:48;6.20;;;3.03;;
62687;SDS011;48752;51.056;17.056;2023-08-24T06:59:14;6.45;;;3.50;;
62687;SDS011;48752;51.056;17.056;2023-08-24T07:01:42;8.25;;;3.03;;
62687;SDS011;48752;51.056;17.056;2023-08-24T07:04:07;6.50;;;2.70;;
62687;SDS011;48752;51.056;17.056;2023-08-24T07:06:34;7.38;;;2.75;;
62687;SDS011;48752;51.056;17.056;2023-08-24T07:09:00;5.22;;;2.60;;
62687;SDS011;48752;51.056;17.056;2023-08-24T07:11:32;4.40;;;2.70;;
62687;SDS011;48752;51.056;17.056;2023-08-24T07:13:57;12.80;;;3.30;;
62687;SDS011;48752;51.056;17.056;2023-08-24T07:16:23;9.98;;;2.33;;
62687;SDS011;48752;51.056;17.056;2023-08-24T07:21:21;3.70;;;2.58;;
62687;SDS011;48752;51.056;17.056;2023-08-24T07:23:48;6.80;;;2.75;;
62687;SDS011;48752;51.056;17.056;2023-08-24T07:26:13;6.20;;;2.83;;
62687;SDS011;48752;51.056;17.056;2023-08-24T07:28:41;3.55;;;2.33;;
62687;SDS011;48752;51.056;17.056;2023-08-24T07:31:11;2.63;;;2.10;;
62687;SDS011;48752;51.056;17.056;2023-08-24T07:33:37;6.07;;;2.40;;
62687;SDS011;48752;51.056;17.056;2023-08-24T07:36:05;5.43;;;2.65;;
62687;SDS011;48752;51.056;17.056;2023-08-24T07:38:31;6.43;;;2.60;;
62687;SDS011;48752;51.056;17.056;2023-08-24T07:40:58;5.22;;;2.22;;
62687;SDS011;48752;51.056;17.056;2023-08-24T07:43:24;4.05;;;2.40;;
62687;SDS011;48752;51.056;17.056;2023-08-24T07:45:50;4.82;;;2.13;;
62687;SDS011;48752;51.056;17.056;2023-08-24T07:48:17;9.07;;;2.67;;
62687;SDS011;48752;51.056;17.056;2023-08-24T07:50:43;7.88;;;2.50;;
62687;SDS011;48752;51.056;17.056;2023-08-24T07:53:10;7.25;;;2.40;;
62687;SDS011;48752;51.056;17.056;2023-08-24T07:55:36;8.73;;;2.28;;
62687;SDS011;48752;51.056;17.056;2023-08-24T07:58:01;10.55;;;2.75;;
62687;SDS011;48752;51.056;17.056;2023-08-24T08:00:28;3.50;;;2.35;;
62687;SDS011;48752;51.056;17.056;2023-08-24T08:02:55;3.97;;;2.20;;
62687;SDS011;48752;51.056;17.056;2023-08-24T08:05:23;6.05;;;2.42;;
62687;SDS011;48752;51.056;17.056;2023-08-24T08:07:50;6.88;;;2.10;;
62687;SDS011;48752;51.056;17.056;2023-08-24T08:10:15;5.03;;;2.35;;
62687;SDS011;48752;51.056;17.056;2023-08-24T08:12:43;4.15;;;1.92;;
62687;SDS011;48752;51.056;17.056;2023-08-24T08:15:10;7.43;;;2.28;;
62687;SDS011;48752;51.056;17.056;2023-08-24T08:17:35;3.30;;;2.08;;
62687;SDS011;48752;51.056;17.056;2023-08-24T08:20:01;6.90;;;2.50;;
62687;SDS011;48752;51.056;17.056;2023-08-24T08:22:27;4.55;;;2.30;;
62687;SDS011;48752;51.056;17.056;2023-08-24T08:24:53;2.50;;;1.95;;
62687;SDS011;48752;51.056;17.056;2023-08-24T08:27:19;7.38;;;2.05;;
62687;SDS011;48752;51.056;17.056;2023-08-24T08:29:45;6.57;;;2.03;;
62687;SDS011;48752;51.056;17.056;2023-08-24T08:32:10;4.57;;;1.80;;
62687;SDS011;48752;51.056;17.056;2023-08-24T08:34:38;4.07;;;1.90;;
62687;SDS011;48752;51.056;17.056;2023-08-24T08:37:04;3.63;;;2.00;;
62687;SDS011;48752;51.056;17.056;2023-08-24T08:39:29;2.67;;;1.85;;
62687;SDS011;48752;51.056;17.056;2023-08-24T08:41:55;3.95;;;1.80;;
62687;SDS011;48752;51.056;17.056;2023-08-24T08:44:20;3.75;;;2.08;;
62687;SDS011;48752;51.056;17.056;2023-08-24T08:46:48;3.70;;;1.95;;
62687;SDS011;48752;51.056;17.056;2023-08-24T08:49:14;5.50;;;1.80;;
62687;SDS011;48752;51.056;17.056;2023-08-24T08:51:41;5.90;;;2.22;;
62687;SDS011;48752;51.056;17.056;2023-08-24T08:54:06;4.10;;;2.03;;
62687;SDS011;48752;51.056;17.056;2023-08-24T08:56:32;6.05;;;2.10;;
62687;SDS011;48752;51.056;17.056;2023-08-24T08:58:59;3.45;;;1.88;;
62687;SDS011;48752;51.056;17.056;2023-08-24T09:01:26;4.95;;;2.20;;
62687;SDS011;48752;51.056;17.056;2023-08-24T09:03:53;4.20;;;1.77;;
62687;SDS011;48752;51.056;17.056;2023-08-24T09:06:21;8.25;;;1.95;;
62687;SDS011;48752;51.056;17.056;2023-08-24T09:08:47;6.40;;;2.05;;
62687;SDS011;48752;51.056;17.056;2023-08-24T09:11:14;4.20;;;2.15;;
62687;SDS011;48752;51.056;17.056;2023-08-24T09:13:42;3.60;;;1.95;;
62687;SDS011;48752;51.056;17.056;2023-08-24T09:16:08;8.52;;;2.50;;
62687;SDS011;48752;51.056;17.056;2023-08-24T09:18:43;3.08;;;1.80;;
62687;SDS011;48752;51.056;17.056;2023-08-24T09:21:11;2.20;;;1.60;;
62687;SDS011;48752;51.056;17.056;2023-08-24T09:23:38;10.02;;;1.98;;
62687;SDS011;48752;51.056;17.056;2023-08-24T09:26:12;2.45;;;1.80;;
62687;SDS011;48752;51.056;17.056;2023-08-24T09:28:42;1.67;;;1.40;;
62687;SDS011;48752;51.056;17.056;2023-08-24T09:31:11;2.25;;;1.60;;
62687;SDS011;48752;51.056;17.056;2023-08-24T09:33:37;2.35;;;1.83;;
62687;SDS011;48752;51.056;17.056;2023-08-24T09:36:05;3.67;;;1.80;;
62687;SDS011;48752;51.056;17.056;2023-08-24T09:38:33;4.75;;;2.30;;
62687;SDS011;48752;51.056;17.056;2023-08-24T09:41:01;5.78;;;2.50;;
62687;SDS011;48752;51.056;17.056;2023-08-24T09:43:29;5.45;;;2.35;;
62687;SDS011;48752;51.056;17.056;2023-08-24T09:45:56;5.50;;;2.13;;
62687;SDS011;48752;51.056;17.056;2023-08-24T09:48:23;3.53;;;2.00;;
62687;SDS011;48752;51.056;17.056;2023-08-24T09:50:50;3.47;;;2.45;;
62687;SDS011;48752;51.056;17.056;2023-08-24T09:53:17;4.93;;;2.25;;
62687;SDS011;48752;51.056;17.056;2023-08-24T09:55:48;9.02;;;2.58;;
62687;SDS011;48752;51.056;17.056;2023-08-24T09:58:18;4.22;;;1.58;;
62687;SDS011;48752;51.056;17.056;2023-08-24T10:00:51;5.78;;;2.45;;
62687;SDS011;48752;51.056;17.056;2023-08-24T10:03:23;4.03;;;2.63;;
62687;SDS011;48752;51.056;17.056;2023-08-24T10:06:06;4.60;;;2.45;;
62687;SDS011;48752;51.056;17.056;2023-08-24T10:08:39;4.93;;;2.55;;
62687;SDS011;48752;51.056;17.056;2023-08-24T10:11:09;6.72;;;3.13;;
62687;SDS011;48752;51.056;17.056;2023-08-24T10:13:41;5.65;;;3.10;;
62687;SDS011;48752;51.056;17.056;2023-08-24T10:16:13;12.25;;;3.65;;
62687;SDS011;48752;51.056;17.056;2023-08-24T10:18:40;7.63;;;3.17;;
62687;SDS011;48752;51.056;17.056;2023-08-24T10:21:06;7.53;;;3.13;;
62687;SDS011;48752;51.056;17.056;2023-08-24T10:23:33;10.10;;;3.13;;
62687;SDS011;48752;51.056;17.056;2023-08-24T10:25:59;10.00;;;3.38;;
62687;SDS011;48752;51.056;17.056;2023-08-24T10:28:27;2.65;;;2.40;;
62687;SDS011;48752;51.056;17.056;2023-08-24T10:30:53;7.78;;;2.75;;
62687;SDS011;48752;51.056;17.056;2023-08-24T10:33:20;6.75;;;2.90;;
62687;SDS011;48752;51.056;17.056;2023-08-24T10:35:47;6.25;;;3.08;;
62687;SDS011;48752;51.056;17.056;2023-08-24T10:38:26;6.38;;;3.00;;
62687;SDS011;48752;51.056;17.056;2023-08-24T10:41:12;7.70;;;2.63;;
62687;SDS011;48752;51.056;17.056;2023-08-24T10:43:40;7.43;;;2.97;;
62687;SDS011;48752;51.056;17.056;2023-08-24T10:46:13;5.53;;;2.83;;
62687;SDS011;48752;51.056;17.056;2023-08-24T10:53:46;5.07;;;2.47;;
62687;SDS011;48752;51.056;17.056;2023-08-24T10:56:14;4.63;;;2.70;;
62687;SDS011;48752;51.056;17.056;2023-08-24T10:58:42;4.55;;;3.00;;
62687;SDS011;48752;51.056;17.056;2023-08-24T11:01:20;2.90;;;2.15;;
62687;SDS011;48752;51.056;17.056;2023-08-24T11:03:50;7.10;;;2.72;;
62687;SDS011;48752;51.056;17.056;2023-08-24T11:06:23;6.68;;;2.40;;
62687;SDS011;48752;51.056;17.056;2023-08-24T11:12:01;3.92;;;2.85;;
62687;SDS011;48752;51.056;17.056;2023-08-24T11:14:31;9.30;;;3.05;;
62687;SDS011;48752;51.056;17.056;2023-08-24T11:16:59;9.13;;;2.95;;
62687;SDS011;48752;51.056;17.056;2023-08-24T11:19:25;107.18;;;12.65;;
62687;SDS011;48752;51.056;17.056;2023-08-24T11:21:51;56.42;;;9.95;;
62687;SDS011;48752;51.056;17.056;2023-08-24T11:24:17;28.40;;;5.55;;
62687;SDS011;48752;51.056;17.056;2023-08-24T11:26:44;4.90;;;2.45;;
62687;SDS011;48752;51.056;17.056;2023-08-24T11:29:13;5.63;;;2.80;;
62687;SDS011;48752;51.056;17.056;2023-08-24T11:31:52;16.75;;;4.40;;
62687;SDS011;48752;51.056;17.056;2023-08-24T11:34:19;13.50;;;4.32;;
62687;SDS011;48752;51.056;17.056;2023-08-24T11:36:46;8.38;;;3.10;;
62687;SDS011;48752;51.056;17.056;2023-08-24T11:39:25;14.55;;;4.43;;
62687;SDS011;48752;51.056;17.056;2023-08-24T11:41:58;4.90;;;2.50;;
62687;SDS011;48752;51.056;17.056;2023-08-24T11:44:26;11.90;;;3.15;;
62687;SDS011;48752;51.056;17.056;2023-08-24T11:46:52;9.98;;;2.78;;
62687;SDS011;48752;51.056;17.056;2023-08-24T11:49:21;15.18;;;4.35;;
62687;SDS011;48752;51.056;17.056;2023-08-24T11:51:47;18.35;;;4.50;;
62687;SDS011;48752;51.056;17.056;2023-08-24T11:54:16;8.07;;;2.60;;
62687;SDS011;48752;51.056;17.056;2023-08-24T11:56:46;2.50;;;2.30;;
62687;SDS011;48752;51.056;17.056;2023-08-24T11:59:12;7.45;;;2.63;;
62687;SDS011;48752;51.056;17.056;2023-08-24T12:01:39;3.47;;;2.33;;
62687;SDS011;48752;51.056;17.056;2023-08-24T12:04:06;2.42;;;2.20;;
62687;SDS011;48752;51.056;17.056;2023-08-24T12:06:32;2.45;;;1.92;;
62687;SDS011;48752;51.056;17.056;2023-08-24T12:08:57;7.60;;;3.33;;
62687;SDS011;48752;51.056;17.056;2023-08-24T12:13:54;5.28;;;2.58;;
62687;SDS011;48752;51.056;17.056;2023-08-24T12:16:20;4.80;;;2.33;;
62687;SDS011;48752;51.056;17.056;2023-08-24T12:18:54;6.00;;;2.60;;
62687;SDS011;48752;51.056;17.056;2023-08-24T12:21:22;6.65;;;2.53;;
62687;SDS011;48752;51.056;17.056;2023-08-24T12:24:01;3.85;;;2.63;;
62687;SDS011;48752;51.056;17.056;2023-08-24T12:26:31;4.57;;;2.78;;
62687;SDS011;48752;51.056;17.056;2023-08-24T12:29:01;4.88;;;2.60;;
62687;SDS011;48752;51.056;17.056;2023-08-24T12:31:28;7.68;;;2.28;;
62687;SDS011;48752;51.056;17.056;2023-08-24T12:33:59;4.13;;;2.53;;
62687;SDS011;48752;51.056;17.056;2023-08-24T12:36:29;2.83;;;2.33;;
62687;SDS011;48752;51.056;17.056;2023-08-24T12:38:56;4.88;;;2.15;;
62687;SDS011;48752;51.056;17.056;2023-08-24T12:41:22;4.45;;;2.38;;
62687;SDS011;48752;51.056;17.056;2023-08-24T12:43:49;17.13;;;3.08;;
62687;SDS011;48752;51.056;17.056;2023-08-24T12:46:17;3.97;;;2.00;;
62687;SDS011;48752;51.056;17.056;2023-08-24T12:48:43;5.22;;;2.05;;
62687;SDS011;48752;51.056;17.056;2023-08-24T12:51:09;6.18;;;2.08;;
62687;SDS011;48752;51.056;17.056;2023-08-24T12:53:36;2.47;;;2.15;;
62687;SDS011;48752;51.056;17.056;2023-08-24T12:56:02;5.53;;;2.00;;
62687;SDS011;48752;51.056;17.056;2023-08-24T12:58:28;3.55;;;1.98;;
62687;SDS011;48752;51.056;17.056;2023-08-24T13:00:54;6.45;;;2.42;;
62687;SDS011;48752;51.056;17.056;2023-08-24T13:03:21;2.65;;;2.00;;
62687;SDS011;48752;51.056;17.056;2023-08-24T13:05:54;3.70;;;1.88;;
62687;SDS011;48752;51.056;17.056;2023-08-24T13:08:20;6.38;;;2.20;;
62687;SDS011;48752;51.056;17.056;2023-08-24T13:10:46;5.95;;;2.47;;
62687;SDS011;48752;51.056;17.056;2023-08-24T13:13:12;5.45;;;2.70;;
62687;SDS011;48752;51.056;17.056;2023-08-24T13:15:37;3.90;;;2.10;;
62687;SDS011;48752;51.056;17.056;2023-08-24T13:18:19;2.47;;;2.00;;
62687;SDS011;48752;51.056;17.056;2023-08-24T13:20:46;2.55;;;2.20;;
62687;SDS011;48752;51.056;17.056;2023-08-24T13:23:17;4.82;;;2.10;;
62687;SDS011;48752;51.056;17.056;2023-08-24T13:28:08;3.27;;;2.03;;
62687;SDS011;48752;51.056;17.056;2023-08-24T13:30:33;3.15;;;2.03;;
62687;SDS011;48752;51.056;17.056;2023-08-24T13:32:59;5.30;;;2.20;;
62687;SDS011;48752;51.056;17.056;2023-08-24T13:35:25;3.42;;;1.98;;
62687;SDS011;48752;51.056;17.056;2023-08-24T13:37:52;5.70;;;2.10;;
62687;SDS011;48752;51.056;17.056;2023-08-24T13:40:18;6.32;;;2.40;;
62687;SDS011;48752;51.056;17.056;2023-08-24T13:42:45;5.55;;;2.10;;
62687;SDS011;48752;51.056;17.056;2023-08-24T13:45:11;4.55;;;2.20;;
62687;SDS011;48752;51.056;17.056;2023-08-24T13:47:38;5.13;;;2.20;;
62687;SDS011;48752;51.056;17.056;2023-08-24T13:50:07;6.93;;;2.33;;
62687;SDS011;48752;51.056;17.056;2023-08-24T13:52:34;3.72;;;2.17;;
62687;SDS011;48752;51.056;17.056;2023-08-24T13:54:59;5.30;;;2.20;;
62687;SDS011;48752;51.056;17.056;2023-08-24T13:57:30;2.33;;;1.83;;
62687;SDS011;48752;51.056;17.056;2023-08-24T13:59:58;5.75;;;2.55;;
62687;SDS011;48752;51.056;17.056;2023-08-24T14:02:24;4.22;;;2.13;;
62687;SDS011;48752;51.056;17.056;2023-08-24T14:04:51;8.02;;;2.15;;
62687;SDS011;48752;51.056;17.056;2023-08-24T14:07:17;2.80;;;2.20;;
62687;SDS011;48752;51.056;17.056;2023-08-24T14:09:43;4.45;;;2.03;;
62687;SDS011;48752;51.056;17.056;2023-08-24T14:12:09;8.65;;;2.00;;
62687;SDS011;48752;51.056;17.056;2023-08-24T14:14:37;5.82;;;2.20;;
62687;SDS011;48752;51.056;17.056;2023-08-24T14:17:02;7.93;;;2.42;;
62687;SDS011;48752;51.056;17.056;2023-08-24T14:19:29;3.15;;;2.13;;
62687;SDS011;48752;51.056;17.056;2023-08-24T14:21:55;4.00;;;2.05;;
62687;SDS011;48752;51.056;17.056;2023-08-24T14:24:26;4.38;;;2.15;;
62687;SDS011;48752;51.056;17.056;2023-08-24T14:26:52;4.03;;;1.98;;
62687;SDS011;48752;51.056;17.056;2023-08-24T14:29:34;4.40;;;2.53;;
62687;SDS011;48752;51.056;17.056;2023-08-24T14:32:00;5.72;;;2.67;;
62687;SDS011;48752;51.056;17.056;2023-08-24T14:34:26;2.88;;;2.58;;
62687;SDS011;48752;51.056;17.056;2023-08-24T14:36:52;4.35;;;2.10;;
62687;SDS011;48752;51.056;17.056;2023-08-24T14:39:19;5.97;;;2.10;;
62687;SDS011;48752;51.056;17.056;2023-08-24T14:41:45;2.85;;;2.65;;
62687;SDS011;48752;51.056;17.056;2023-08-24T14:44:13;5.35;;;2.40;;
62687;SDS011;48752;51.056;17.056;2023-08-24T14:46:38;3.00;;;2.00;;
62687;SDS011;48752;51.056;17.056;2023-08-24T14:49:04;7.65;;;2.50;;
62687;SDS011;48752;51.056;17.056;2023-08-24T14:51:32;10.70;;;2.60;;
62687;SDS011;48752;51.056;17.056;2023-08-24T14:53:57;4.70;;;2.55;;
62687;SDS011;48752;51.056;17.056;2023-08-24T14:56:25;3.63;;;2.47;;
62687;SDS011;48752;51.056;17.056;2023-08-24T14:58:50;7.13;;;2.40;;